Time;durP1;ratioP1;P1;durP2;ratioP2;P2;SDS_P1;SDS_P2;PMS_P1;PMS_P2;Temp;Humidity;BMP_temperature;BMP_pressure;BME280_temperature;BME280_humidity;BME280_pressure;Samples;Min_cycle;Max_cycle;Signal;HPM_P1;HPM_P2
2023/11/14 00:01:56;;;;;;;;;;;17.20;70.70;;;13.16;100.00;94993.72;5013875;28;20416;-54
2023/11/14 00:04:22;;;;;;;;;;;17.20;70.70;;;13.16;100.00;94996.41;5004484;28;19917;-56
2023/11/14 00:06:48;;;;;;;;;;;17.20;70.80;;;13.14;100.00;95010.09;5013662;28;19963;-51
2023/11/14 00:09:14;;;;;;;;;;;17.10;70.80;;;13.14;100.00;95012.75;4993670;28;19948;-52
2023/11/14 00:11:41;;;;;;;;;;;17.10;70.90;;;13.08;100.00;95015.81;5013735;28;19997;-53
2023/11/14 00:14:07;;;;;;;;;;;17.10;71.00;;;13.01;100.00;95010.06;5006667;28;19913;-54
2023/11/14 00:16:33;;;;;;;;;;;17.00;71.20;;;13.00;100.00;95005.78;4980755;28;19909;-53
2023/11/14 00:18:58;;;;;;;;;;;17.00;71.30;;;12.92;100.00;95005.38;5013220;28;19959;-52
2023/11/14 00:21:24;;;;;;;;;;;16.90;71.50;;;12.93;100.00;95006.16;5004277;28;19962;-50
2023/11/14 00:23:51;;;;;;;;;;;16.80;71.60;;;12.90;100.00;95010.22;5008522;28;19914;-56
2023/11/14 00:26:16;;;;;;;;;;;16.80;71.70;;;12.79;100.00;95016.03;5010262;28;19909;-53
2023/11/14 00:28:42;;;;;;;;;;;16.80;72.00;;;12.77;100.00;95012.84;4998394;28;20410;-54
2023/11/14 00:31:08;;;;;;;;;;;16.80;72.10;;;12.72;100.00;95001.16;5013175;28;19909;-55
2023/11/14 00:33:34;;;;;;;;;;;16.70;72.20;;;12.67;100.00;94992.44;4981707;28;20008;-53
2023/11/14 00:36:00;;;;;;;;;;;16.70;72.40;;;12.65;100.00;94999.94;5013217;28;19909;-52
2023/11/14 00:38:26;;;;;;;;;;;16.70;72.60;;;12.66;100.00;95004.19;5008484;28;20314;-50
2023/11/14 00:40:53;;;;;;;;;;;16.60;72.60;;;12.63;100.00;95013.59;4995461;28;19912;-55
2023/11/14 00:43:19;;;;;;;;;;;16.60;72.70;;;12.57;100.00;95003.28;5012390;28;19908;-50
2023/11/14 00:45:45;;;;;;;;;;;16.60;72.90;;;12.63;100.00;95016.28;5010683;28;19976;-52
2023/11/14 00:48:11;;;;;;;;;;;16.60;73.00;;;12.59;100.00;95015.25;5012725;28;19909;-52
2023/11/14 00:50:37;;;;;;;;;;;16.60;73.10;;;12.57;100.00;94992.59;5007292;28;19932;-52
2023/11/14 00:53:03;;;;;;;;;;;16.60;73.00;;;12.53;100.00;94999.59;5011434;28;19932;-55
2023/11/14 00:55:29;;;;;;;;;;;16.50;73.10;;;12.51;100.00;95010.56;5012650;28;19935;-52
2023/11/14 00:57:54;;;;;;;;;;;16.50;73.10;;;12.52;100.00;95000.69;5009558;28;20378;-55
2023/11/14 01:00:21;;;;;;;;;;;16.50;73.10;;;12.54;100.00;95001.19;5012480;28;20355;-54
2023/11/14 01:02:47;;;;;;;;;;;16.50;73.10;;;12.52;100.00;94998.00;5010856;28;20379;-52
2023/11/14 01:05:12;;;;;;;;;;;16.50;73.10;;;12.48;100.00;95001.25;5012211;28;19913;-50
2023/11/14 01:07:40;;;;;;;;;;;16.50;73.30;;;12.50;100.00;94999.09;5012457;28;19909;-56
2023/11/14 01:10:07;;;;;;;;;;;16.50;73.40;;;12.52;100.00;95001.47;5010896;28;19916;-51
2023/11/14 01:12:33;;;;;;;;;;;16.50;73.50;;;12.55;100.00;95005.44;5012547;28;19909;-53
2023/11/14 01:14:59;;;;;;;;;;;16.50;73.50;;;12.53;100.00;94983.56;5006223;28;19986;-52
2023/11/14 01:17:25;;;;;;;;;;;16.50;73.60;;;12.55;100.00;95003.56;5012185;28;19916;-52
2023/11/14 01:19:51;;;;;;;;;;;16.50;73.70;;;12.56;100.00;95015.81;5012004;28;19917;-51
2023/11/14 01:22:17;;;;;;;;;;;16.50;73.70;;;12.57;100.00;95013.97;4986944;28;19949;-53
2023/11/14 01:24:44;;;;;;;;;;;16.50;73.80;;;12.59;100.00;95017.91;5011955;28;19913;-52
2023/11/14 01:27:10;;;;;;;;;;;16.50;73.80;;;12.58;100.00;95031.56;5009810;28;19913;-52
2023/11/14 01:29:36;;;;;;;;;;;16.50;73.80;;;12.59;100.00;95017.91;4999553;28;19916;-50
2023/11/14 01:32:01;;;;;;;;;;;16.60;73.90;;;12.59;100.00;95015.25;5011967;28;19909;-53
2023/11/14 01:34:27;;;;;;;;;;;16.50;73.90;;;12.60;100.00;95022.19;5004244;28;20391;-50
2023/11/14 01:36:56;;;;;;;;;;;16.50;73.90;;;12.62;100.00;95019.22;5002605;28;19934;-51
2023/11/14 01:39:23;;;;;;;;;;;16.50;74.10;;;12.65;100.00;95021.31;4995029;28;19916;-53
2023/11/14 01:41:51;;;;;;;;;;;16.60;74.20;;;12.66;100.00;95009.53;5011920;28;20279;-53
2023/11/14 01:44:16;;;;;;;;;;;16.50;74.20;;;12.69;100.00;95015.09;5007997;28;19916;-53
2023/11/14 01:46:42;;;;;;;;;;;16.50;74.30;;;12.71;100.00;95012.91;5011852;28;19909;-55
2023/11/14 01:49:08;;;;;;;;;;;16.60;74.40;;;12.73;100.00;95018.00;4993974;28;20387;-54
2023/11/14 01:51:35;;;;;;;;;;;16.60;74.40;;;12.74;100.00;95011.53;4989685;28;19914;-54
2023/11/14 01:54:03;;;;;;;;;;;16.60;74.40;;;12.73;100.00;95008.09;4988199;28;19919;-55
2023/11/14 01:56:29;;;;;;;;;;;16.70;74.40;;;12.72;100.00;95021.72;4966877;28;19914;-51
2023/11/14 01:58:56;;;;;;;;;;;16.60;74.30;;;12.74;100.00;95015.00;5006974;28;19909;-54
2023/11/14 02:01:24;;;;;;;;;;;16.70;74.30;;;12.74;100.00;95008.88;5011411;28;19971;-52
2023/11/14 02:03:51;;;;;;;;;;;16.70;74.30;;;12.71;100.00;95001.44;5002244;28;19909;-55
2023/11/14 02:06:17;;;;;;;;;;;16.60;74.30;;;12.71;100.00;95015.59;5011572;28;19909;-52
2023/11/14 02:08:43;;;;;;;;;;;16.70;74.30;;;12.72;100.00;95013.72;5005731;28;19909;-51
2023/11/14 02:11:10;;;;;;;;;;;16.70;74.30;;;12.66;100.00;95002.34;5011354;28;19913;-52
2023/11/14 02:13:36;;;;;;;;;;;16.60;74.20;;;12.65;100.00;94999.94;5009589;28;20002;-51
2023/11/14 02:16:03;;;;;;;;;;;16.60;74.30;;;12.66;100.00;94999.66;4981747;28;20310;-51
2023/11/14 02:18:28;;;;;;;;;;;16.60;74.30;;;12.66;100.00;94996.97;5000556;28;19924;-52
2023/11/14 02:20:54;;;;;;;;;;;16.70;74.40;;;12.63;100.00;94992.22;5003306;23;19974;-59
2023/11/14 02:23:24;;;;;;;;;;;16.70;74.50;;;12.66;100.00;94998.84;4973498;28;19920;-59
2023/11/14 02:25:50;;;;;;;;;;;16.60;74.40;;;12.67;100.00;94990.53;4965720;28;19932;-58
2023/11/14 02:28:16;;;;;;;;;;;16.60;74.50;;;12.67;100.00;94987.88;4970556;28;20368;-56
2023/11/14 02:30:42;;;;;;;;;;;16.60;74.50;;;12.67;100.00;94979.06;5005344;28;19934;-53
2023/11/14 02:33:08;;;;;;;;;;;16.60;74.50;;;12.63;100.00;94983.38;4987198;28;21850;-59
2023/11/14 02:35:34;;;;;;;;;;;16.60;74.70;;;12.65;100.00;94984.69;5011566;28;19909;-58
2023/11/14 02:38:00;;;;;;;;;;;16.60;74.60;;;12.65;100.00;94986.56;4997987;28;20448;-58
2023/11/14 02:40:26;;;;;;;;;;;16.60;74.60;;;12.64;100.00;94987.66;5002214;28;19909;-56
2023/11/14 02:42:53;;;;;;;;;;;16.60;74.70;;;12.66;100.00;95012.19;5010730;28;19916;-57
2023/11/14 02:45:20;;;;;;;;;;;16.70;74.80;;;12.66;100.00;95014.88;5001945;28;20438;-57
2023/11/14 02:47:48;;;;;;;;;;;16.60;74.70;;;12.66;100.00;95030.91;5010635;28;20283;-53
2023/11/14 02:51:00;;;;;;;;;;;16.70;74.70;;;12.62;100.00;95022.69;5007984;28;19909;-55
2023/11/14 02:53:26;;;;;;;;;;;16.60;74.70;;;12.55;100.00;95013.47;4979277;28;19917;-55
2023/11/14 02:55:52;;;;;;;;;;;16.60;74.70;;;12.56;100.00;95021.16;5002526;28;19909;-54
2023/11/14 02:58:19;;;;;;;;;;;16.60;74.70;;;12.54;100.00;95018.00;5006421;28;20287;-55
2023/11/14 03:00:48;;;;;;;;;;;16.60;74.70;;;12.52;100.00;95011.38;5014329;28;19913;-53
2023/11/14 03:03:18;;;;;;;;;;;16.60;74.80;;;12.51;100.00;95029.28;5005203;28;19931;-57
2023/11/14 03:05:45;;;;;;;;;;;16.60;74.80;;;12.47;100.00;95033.59;5014592;28;20391;-56
2023/11/14 03:08:11;;;;;;;;;;;16.50;74.80;;;12.42;100.00;95058.50;5012172;28;19909;-56
2023/11/14 03:10:38;;;;;;;;;;;16.50;74.90;;;12.36;100.00;95074.91;5012319;28;19942;-53
2023/11/14 03:13:06;;;;;;;;;;;16.50;75.00;;;12.35;100.00;95063.41;5014633;28;19952;-54
2023/11/14 03:15:32;;;;;;;;;;;16.50;75.00;;;12.30;100.00;95054.69;5006242;28;19963;-58
2023/11/14 03:18:02;;;;;;;;;;;16.40;75.10;;;12.26;100.00;95067.81;4996944;28;19912;-58
2023/11/14 03:20:29;;;;;;;;;;;16.40;75.10;;;12.20;100.00;95069.75;5005996;28;19922;-56
2023/11/14 03:22:55;;;;;;;;;;;16.40;75.10;;;12.16;100.00;95082.09;4973122;28;19913;-57
2023/11/14 03:25:22;;;;;;;;;;;16.40;75.20;;;12.08;100.00;95093.38;5014438;28;19913;-53
2023/11/14 03:27:48;;;;;;;;;;;16.30;75.10;;;12.01;100.00;95101.75;5004021;28;19909;-52
2023/11/14 03:30:14;;;;;;;;;;;16.30;75.20;;;11.93;100.00;95091.69;5013640;28;19909;-56
2023/11/14 03:32:40;;;;;;;;;;;16.20;75.20;;;11.86;100.00;95107.25;5010037;28;19944;-56
2023/11/14 03:35:07;;;;;;;;;;;16.10;75.20;;;11.74;100.00;95106.81;4996539;28;20012;-54
2023/11/14 03:37:34;;;;;;;;;;;16.10;75.20;;;11.70;100.00;95116.47;5013966;28;19912;-53
2023/11/14 03:40:00;;;;;;;;;;;16.00;75.20;;;11.56;100.00;95125.16;5006725;28;20345;-52
2023/11/14 03:42:26;;;;;;;;;;;15.90;75.10;;;11.55;100.00;95128.88;5013922;28;20003;-54
2023/11/14 03:44:52;;;;;;;;;;;15.90;75.20;;;11.52;100.00;95137.44;5006584;28;20000;-55
2023/11/14 03:47:17;;;;;;;;;;;15.80;75.20;;;11.36;100.00;95154.66;5012515;28;19917;-58
2023/11/14 03:49:43;;;;;;;;;;;15.70;75.20;;;11.20;100.00;95148.66;5013468;28;19909;-49
2023/11/14 03:52:09;;;;;;;;;;;15.60;75.10;;;11.03;100.00;95140.22;5001776;28;19964;-56
2023/11/14 03:54:36;;;;;;;;;;;15.60;75.00;;;10.92;100.00;95158.16;5009955;28;20275;-57
2023/11/14 03:57:03;;;;;;;;;;;15.40;74.80;;;10.86;100.00;95165.41;5002288;28;20016;-56
2023/11/14 03:59:28;;;;;;;;;;;15.30;74.80;;;10.77;100.00;95169.72;4995601;28;20358;-57
2023/11/14 04:01:54;;;;;;;;;;;15.20;74.80;;;10.64;100.00;95184.44;5013654;28;19916;-57
2023/11/14 04:04:20;;;;;;;;;;;15.10;74.80;;;10.65;100.00;95195.88;4987443;28;20295;-57
2023/11/14 04:06:46;;;;;;;;;;;15.00;74.90;;;10.54;100.00;95191.69;5012957;28;19916;-57
2023/11/14 04:09:12;;;;;;;;;;;14.90;74.90;;;10.46;100.00;95217.00;5004830;28;20296;-57
2023/11/14 04:11:47;;;;;;;;;;;14.80;74.80;;;10.35;100.00;95202.16;5013547;28;20240;-54
2023/11/14 04:14:13;;;;;;;;;;;14.80;74.90;;;10.31;100.00;95203.75;5009668;28;20397;-58
2023/11/14 04:16:40;;;;;;;;;;;14.70;74.90;;;10.27;100.00;95213.34;5003303;28;19909;-58
2023/11/14 04:19:05;;;;;;;;;;;14.60;74.80;;;10.14;100.00;95228.78;5011463;28;19947;-62
2023/11/14 04:21:31;;;;;;;;;;;14.60;74.80;;;10.14;100.00;95225.31;5007818;28;20384;-59
2023/11/14 04:23:57;;;;;;;;;;;14.50;74.70;;;10.05;100.00;95217.09;5011151;28;20015;-59
2023/11/14 04:26:23;;;;;;;;;;;14.40;74.60;;;10.04;100.00;95218.16;5010195;28;20007;-59
2023/11/14 04:28:49;;;;;;;;;;;14.30;74.60;;;9.96;100.00;95214.22;5010760;28;19917;-56
2023/11/14 04:31:16;;;;;;;;;;;14.30;74.70;;;9.89;100.00;95240.28;5008330;28;19913;-56
2023/11/14 04:33:42;;;;;;;;;;;14.20;74.70;;;9.86;100.00;95235.47;5004548;28;19966;-58
2023/11/14 04:36:13;;;;;;;;;;;14.20;74.60;;;9.73;100.00;95238.69;5013785;28;19909;-58
2023/11/14 04:38:40;;;;;;;;;;;14.10;74.50;;;9.70;100.00;95244.53;5011831;28;20008;-59
2023/11/14 04:41:06;;;;;;;;;;;14.00;74.50;;;9.62;100.00;95245.06;5013665;28;19909;-57
2023/11/14 04:43:32;;;;;;;;;;;13.90;74.50;;;9.54;100.00;95233.13;5013780;28;19948;-60
2023/11/14 04:45:58;;;;;;;;;;;13.90;74.50;;;9.54;100.00;95251.72;5007886;28;19916;-57
2023/11/14 04:48:24;;;;;;;;;;;13.80;74.50;;;9.49;100.00;95235.75;5008565;28;20287;-57
2023/11/14 04:50:50;;;;;;;;;;;13.80;74.60;;;9.47;100.00;95275.13;5006234;28;20290;-55
2023/11/14 04:53:16;;;;;;;;;;;13.70;74.50;;;9.33;100.00;95274.03;4989472;28;19909;-60
2023/11/14 04:55:42;;;;;;;;;;;13.70;74.50;;;9.33;100.00;95295.31;5013828;28;20299;-58
2023/11/14 04:58:08;;;;;;;;;;;13.60;74.40;;;9.25;100.00;95284.13;5004258;28;19920;-59
2023/11/14 05:00:34;;;;;;;;;;;13.60;74.50;;;9.18;100.00;95288.09;5013400;28;20023;-55
2023/11/14 05:03:05;;;;;;;;;;;13.50;74.50;;;9.09;100.00;95308.25;5008929;28;19909;-54
2023/11/14 05:05:35;;;;;;;;;;;13.40;74.40;;;9.01;100.00;95321.00;5013651;28;19932;-57
2023/11/14 05:08:02;;;;;;;;;;;13.40;74.50;;;8.86;100.00;95306.84;5013275;28;20371;-54
2023/11/14 05:10:28;;;;;;;;;;;13.30;74.50;;;8.76;100.00;95311.06;5004700;28;20012;-53
2023/11/14 05:12:53;;;;;;;;;;;13.20;74.40;;;8.70;100.00;95322.72;5012394;28;19960;-56
2023/11/14 05:15:19;;;;;;;;;;;13.10;74.30;;;8.57;100.00;95336.47;5008192;28;19917;-53
2023/11/14 05:17:45;;;;;;;;;;;13.00;74.30;;;8.51;100.00;95340.94;5012834;28;19917;-52
2023/11/14 05:20:12;;;;;;;;;;;13.00;74.30;;;8.43;100.00;95325.53;5010945;28;19924;-56
2023/11/14 05:22:40;;;;;;;;;;;12.90;74.30;;;8.33;100.00;95328.84;5000546;28;20278;-50
2023/11/14 05:25:10;;;;;;;;;;;12.90;74.40;;;8.29;100.00;95305.75;5012788;28;19909;-50
2023/11/14 05:27:38;;;;;;;;;;;12.80;74.40;;;8.22;100.00;95324.56;5004056;28;19916;-55
2023/11/14 05:30:10;;;;;;;;;;;12.70;74.40;;;8.16;100.00;95316.81;5012624;28;20355;-53
2023/11/14 05:32:37;;;;;;;;;;;12.60;74.40;;;8.06;100.00;95326.31;5011084;28;20333;-52
2023/11/14 05:35:03;;;;;;;;;;;12.50;74.40;;;8.01;100.00;95314.84;5012958;28;20284;-50
2023/11/14 05:37:29;;;;;;;;;;;12.50;74.50;;;8.00;100.00;95300.00;5007407;28;19976;-54
2023/11/14 05:39:56;;;;;;;;;;;12.40;74.50;;;7.94;100.00;95293.84;4990951;28;19945;-56
2023/11/14 05:42:22;;;;;;;;;;;12.40;74.50;;;7.94;100.00;95314.28;4992840;28;19963;-55
2023/11/14 05:44:49;;;;;;;;;;;12.30;74.60;;;7.87;100.00;95307.34;4981314;28;19918;-50
2023/11/14 05:47:15;;;;;;;;;;;12.30;74.70;;;7.77;100.00;95327.66;5008350;28;20456;-53
2023/11/14 05:49:41;;;;;;;;;;;12.20;74.50;;;7.70;100.00;95324.44;5012471;28;19916;-51
2023/11/14 05:52:07;;;;;;;;;;;12.20;74.60;;;7.70;100.00;95348.28;5003725;28;19962;-53
2023/11/14 05:54:33;;;;;;;;;;;12.10;74.50;;;7.64;100.00;95345.56;5012421;28;20368;-51
2023/11/14 05:56:59;;;;;;;;;;;12.00;74.60;;;7.62;100.00;95336.31;5008745;28;19916;-50
2023/11/14 05:59:25;;;;;;;;;;;12.00;74.60;;;7.58;100.00;95345.78;5012097;28;19939;-54
2023/11/14 06:01:53;;;;;;;;;;;12.00;74.70;;;7.53;100.00;95338.59;5012245;28;19909;-53
2023/11/14 06:04:21;;;;;;;;;;;11.90;74.60;;;7.48;100.00;95343.03;5004443;28;19952;-50
2023/11/14 06:06:47;;;;;;;;;;;11.90;74.60;;;7.51;100.00;95363.75;5012056;28;19909;-52
2023/11/14 06:09:13;;;;;;;;;;;11.90;74.70;;;7.53;100.00;95383.66;5004288;28;19910;-56
2023/11/14 06:11:39;;;;;;;;;;;11.80;74.70;;;7.53;100.00;95385.50;5010965;28;19915;-52
2023/11/14 06:14:05;;;;;;;;;;;11.80;74.70;;;7.52;100.00;95386.53;5008789;28;19913;-54
2023/11/14 06:16:31;;;;;;;;;;;11.80;74.80;;;7.48;100.00;95391.53;5008153;28;19959;-56
2023/11/14 06:18:57;;;;;;;;;;;11.80;74.80;;;7.48;100.00;95401.34;5012119;28;19988;-58
2023/11/14 06:21:23;;;;;;;;;;;11.80;74.70;;;7.47;100.00;95416.47;5008575;28;21020;-59
2023/11/14 06:23:49;;;;;;;;;;;11.80;74.70;;;7.45;100.00;95439.75;5011965;28;19913;-56
2023/11/14 06:26:15;;;;;;;;;;;11.80;74.70;;;7.44;100.00;95427.56;5009471;28;19913;-60
2023/11/14 06:28:41;;;;;;;;;;;11.90;74.70;;;7.45;100.00;95444.25;5008233;28;20008;-59
2023/11/14 06:31:07;;;;;;;;;;;11.80;74.60;;;7.37;100.00;95446.28;5011768;28;20008;-58
2023/11/14 06:33:33;;;;;;;;;;;11.80;74.60;;;7.40;100.00;95439.72;5002799;28;19912;-60
2023/11/14 06:35:59;;;;;;;;;;;11.80;74.60;;;7.40;100.00;95429.91;5011936;28;19909;-60
2023/11/14 06:38:25;;;;;;;;;;;11.90;74.60;;;7.40;100.00;95435.22;5005601;28;20619;-56
2023/11/14 06:40:51;;;;;;;;;;;11.90;74.60;;;7.35;100.00;95429.03;4997470;28;19913;-60
2023/11/14 06:43:17;;;;;;;;;;;11.80;74.50;;;7.34;100.00;95427.44;5011524;28;19912;-57
2023/11/14 06:45:43;;;;;;;;;;;11.90;74.50;;;7.32;100.00;95434.84;4997882;28;19921;-60
2023/11/14 06:48:10;;;;;;;;;;;11.90;74.50;;;7.28;100.00;95436.38;4987222;28;26891;-60
2023/11/14 06:50:38;;;;;;;;;;;11.80;74.50;;;7.33;100.00;95429.31;4988340;28;20291;-60
2023/11/14 06:53:03;;;;;;;;;;;11.80;74.50;;;7.32;100.00;95450.72;4990808;28;19916;-58
2023/11/14 06:55:29;;;;;;;;;;;11.80;74.60;;;7.38;100.00;95463.00;4993059;28;19909;-58
2023/11/14 06:57:56;;;;;;;;;;;11.80;74.60;;;7.40;100.00;95484.75;4989476;28;20060;-59
2023/11/14 07:00:21;;;;;;;;;;;11.80;74.60;;;7.40;100.00;95490.84;4995040;28;19913;-60
2023/11/14 07:02:47;;;;;;;;;;;11.80;74.60;;;7.40;100.00;95495.34;5003728;28;19909;-60
2023/11/14 07:05:13;;;;;;;;;;;11.80;74.50;;;7.38;100.00;95492.94;5000708;28;19917;-59
2023/11/14 07:07:39;;;;;;;;;;;11.80;74.40;;;7.34;100.00;95497.13;5009334;28;20000;-60
2023/11/14 07:10:07;;;;;;;;;;;11.80;74.40;;;7.30;100.00;95497.84;4994377;28;19913;-58
2023/11/14 07:12:33;;;;;;;;;;;11.80;74.40;;;7.28;100.00;95515.88;5006107;28;20027;-60
2023/11/14 07:15:00;;;;;;;;;;;11.80;74.30;;;7.30;100.00;95509.28;4998571;28;20059;-60
2023/11/14 07:17:26;;;;;;;;;;;11.80;74.40;;;7.29;100.00;95509.50;5005190;28;19920;-60
2023/11/14 07:19:54;;;;;;;;;;;11.80;74.40;;;7.34;100.00;95507.75;5009329;28;19921;-60
2023/11/14 07:22:19;;;;;;;;;;;11.80;74.40;;;7.37;100.00;95491.34;5003893;28;19913;-60
2023/11/14 07:24:45;;;;;;;;;;;11.80;74.40;;;7.38;100.00;95500.09;4999282;28;20280;-60
2023/11/14 07:27:11;;;;;;;;;;;11.80;74.40;;;7.33;100.00;95507.97;4998973;28;19917;-58
2023/11/14 07:29:37;;;;;;;;;;;11.80;74.30;;;7.36;100.00;95510.13;4995555;28;19963;-60
2023/11/14 07:32:03;;;;;;;;;;;11.80;74.30;;;7.36;100.00;95499.53;4988776;28;19909;-60
2023/11/14 07:34:29;;;;;;;;;;;11.80;74.30;;;7.35;100.00;95498.72;4999504;28;19923;-60
2023/11/14 07:36:55;;;;;;;;;;;11.90;74.30;;;7.40;100.00;95485.56;4989935;28;20280;-57
2023/11/14 07:39:23;;;;;;;;;;;11.90;74.40;;;7.41;100.00;95487.16;5001317;28;19916;-58
2023/11/14 07:41:50;;;;;;;;;;;11.90;74.40;;;7.45;100.00;95500.72;4988981;28;19913;-59
2023/11/14 07:44:17;;;;;;;;;;;11.90;74.40;;;7.49;100.00;95509.78;5005290;28;19909;-59
2023/11/14 07:46:44;;;;;;;;;;;11.90;74.40;;;7.52;100.00;95505.81;5007698;28;20371;-60
2023/11/14 07:49:11;;;;;;;;;;;12.00;74.50;;;7.62;100.00;95511.25;5011843;28;19909;-58
2023/11/14 07:51:36;;;;;;;;;;;12.00;74.60;;;7.70;100.00;95510.00;5000150;28;19962;-59
2023/11/14 07:54:03;;;;;;;;;;;12.10;74.70;;;7.77;100.00;95524.69;5012203;28;19917;-59
2023/11/14 07:56:29;;;;;;;;;;;12.20;74.70;;;7.83;100.00;95520.22;5010736;28;20227;-57
2023/11/14 07:58:55;;;;;;;;;;;12.20;74.70;;;7.89;100.00;95501.47;5006289;28;20413;-57
2023/11/14 08:01:20;;;;;;;;;;;12.30;74.70;;;7.95;100.00;95512.94;5009968;28;19909;-57
2023/11/14 08:03:49;;;;;;;;;;;12.30;74.80;;;7.95;100.00;95499.69;4998035;28;19910;-54
2023/11/14 08:06:15;;;;;;;;;;;12.40;74.70;;;8.02;100.00;95504.78;5008691;28;19916;-54
2023/11/14 08:08:43;;;;;;;;;;;12.50;74.70;;;8.06;100.00;95519.97;4995247;28;19921;-58
2023/11/14 08:11:09;;;;;;;;;;;12.50;74.70;;;8.06;100.00;95495.28;4990981;28;19916;-58
2023/11/14 08:13:35;;;;;;;;;;;12.50;74.70;;;8.11;100.00;95496.13;4998325;28;19913;-52
2023/11/14 08:16:01;;;;;;;;;;;12.50;74.70;;;8.19;100.00;95496.75;5002464;28;19916;-56
2023/11/14 08:18:26;;;;;;;;;;;12.60;74.70;;;8.23;100.00;95500.50;5002276;28;20387;-55
2023/11/14 08:20:54;;;;;;;;;;;12.60;74.70;;;8.31;100.00;95492.88;5003227;28;19925;-54
2023/11/14 08:23:20;;;;;;;;;;;12.70;74.70;;;8.35;100.00;95478.03;5001190;28;19913;-57
2023/11/14 08:25:46;;;;;;;;;;;12.70;74.60;;;8.41;100.00;95478.91;4994620;28;19912;-57
2023/11/14 08:28:11;;;;;;;;;;;12.80;74.50;;;8.45;100.00;95482.66;5005384;28;20423;-52
2023/11/14 08:30:37;;;;;;;;;;;12.80;74.40;;;8.49;100.00;95480.28;4993769;28;19917;-58
2023/11/14 08:33:03;;;;;;;;;;;12.80;74.30;;;8.48;100.00;95482.16;5000477;28;20011;-58
2023/11/14 08:35:29;;;;;;;;;;;12.80;75.30;;;8.51;100.00;95463.06;4991117;28;19965;-56
2023/11/14 08:37:55;;;;;;;;;;;12.80;74.20;;;8.52;100.00;95454.06;4993855;28;20123;-56
2023/11/14 08:40:23;;;;;;;;;;;12.90;74.20;;;8.53;100.00;95457.53;4999173;28;19910;-53
2023/11/14 08:42:51;;;;;;;;;;;12.90;74.10;;;8.58;100.00;95458.34;4989680;28;19941;-53
2023/11/14 08:45:19;;;;;;;;;;;12.90;74.10;;;8.61;100.00;95465.00;4996491;28;19912;-52
2023/11/14 08:47:45;;;;;;;;;;;13.00;74.10;;;8.65;100.00;95460.78;4996080;28;19909;-54
2023/11/14 08:50:12;;;;;;;;;;;13.00;74.10;;;8.62;100.00;95445.38;4997765;28;20000;-57
2023/11/14 08:52:40;;;;;;;;;;;13.00;74.10;;;8.64;100.00;95445.91;4999704;28;19910;-54
2023/11/14 08:55:07;;;;;;;;;;;13.00;74.10;;;8.65;100.00;95433.41;5010510;28;19923;-55
2023/11/14 08:57:32;;;;;;;;;;;13.00;74.10;;;8.66;100.00;95405.81;5000240;28;20332;-54
2023/11/14 08:59:59;;;;;;;;;;;13.10;74.10;;;8.64;100.00;95403.41;4995533;28;20033;-54
2023/11/14 09:02:25;;;;;;;;;;;13.10;74.00;;;8.68;100.00;95414.31;4992435;28;19948;-52
2023/11/14 09:04:51;;;;;;;;;;;13.10;74.00;;;8.66;100.00;95422.56;4994221;28;19959;-50
2023/11/14 09:07:17;;;;;;;;;;;13.20;74.00;;;8.69;100.00;95431.88;4985610;28;19909;-54
2023/11/14 09:09:47;;;;;;;;;;;13.20;74.00;;;8.71;100.00;95427.09;4979006;28;19909;-53
2023/11/14 09:12:13;;;;;;;;;;;13.20;74.00;;;8.78;100.00;95428.47;4987593;28;19963;-52
2023/11/14 09:14:39;;;;;;;;;;;13.20;74.00;;;8.81;100.00;95435.13;4987027;28;19918;-56
2023/11/14 09:17:05;;;;;;;;;;;13.20;74.00;;;8.79;100.00;95438.03;4974125;28;19909;-54
2023/11/14 09:19:33;;;;;;;;;;;13.20;74.00;;;8.81;100.00;95440.44;4998551;28;20034;-53
2023/11/14 09:22:00;;;;;;;;;;;13.20;74.00;;;8.86;100.00;95458.25;5009336;28;19913;-53
2023/11/14 09:24:26;;;;;;;;;;;13.20;74.00;;;8.86;100.00;95460.91;5002074;28;19970;-51
2023/11/14 09:26:52;;;;;;;;;;;13.30;74.10;;;8.86;100.00;95460.91;4987777;28;19910;-51
2023/11/14 09:29:17;;;;;;;;;;;13.20;74.00;;;8.91;100.00;95419.25;5001933;28;19920;-51
2023/11/14 09:31:43;;;;;;;;;;;13.20;74.00;;;8.96;100.00;95413.16;5000690;28;19909;-54
2023/11/14 09:34:09;;;;;;;;;;;13.30;74.10;;;9.01;100.00;95418.50;4980453;28;20365;-56
2023/11/14 09:36:35;;;;;;;;;;;13.30;74.10;;;9.04;100.00;95421.44;5010510;28;19920;-54
2023/11/14 09:39:01;;;;;;;;;;;13.30;74.00;;;8.96;100.00;95434.41;4997391;28;19909;-55
2023/11/14 09:41:28;;;;;;;;;;;13.40;74.00;;;8.96;100.00;95432.56;4989625;28;19909;-56
2023/11/14 09:43:54;;;;;;;;;;;13.40;73.90;;;9.01;100.00;95431.78;4975153;28;20368;-52
2023/11/14 09:46:20;;;;;;;;;;;13.40;73.90;;;8.94;100.00;95431.22;5005789;28;19909;-54
2023/11/14 09:48:46;;;;;;;;;;;13.40;73.80;;;9.00;100.00;95432.84;4998327;28;19913;-53
2023/11/14 09:51:14;;;;;;;;;;;13.40;73.90;;;9.01;100.00;95426.47;4991502;28;20253;-54
2023/11/14 09:53:44;;;;;;;;;;;13.40;73.90;;;9.04;100.00;95434.72;4979902;28;19995;-53
2023/11/14 09:56:10;;;;;;;;;;;13.40;73.90;;;9.06;100.00;95426.50;5002292;28;19913;-53
2023/11/14 09:58:37;;;;;;;;;;;13.40;73.80;;;9.06;100.00;95423.03;4993026;28;19909;-53
2023/11/14 10:01:04;;;;;;;;;;;13.40;73.80;;;8.98;100.00;95427.00;5002645;28;19909;-52
2023/11/14 10:03:31;;;;;;;;;;;13.50;73.80;;;8.94;100.00;95418.75;4992884;28;19920;-51
2023/11/14 10:05:57;;;;;;;;;;;13.50;73.70;;;8.95;100.00;95407.03;5002863;28;19909;-54
2023/11/14 10:08:25;;;;;;;;;;;13.50;73.60;;;8.93;100.00;95418.97;5000163;28;19931;-50
2023/11/14 10:11:10;;;;;;;;;;;13.40;73.50;;;8.92;100.00;95425.34;5001192;28;19917;-50
2023/11/14 10:13:40;;;;;;;;;;;13.50;73.50;;;8.94;100.00;95426.72;4983276;28;19932;-54
2023/11/14 10:16:22;;;;;;;;;;;13.50;73.50;;;8.93;100.00;95411.00;4993540;28;20443;-53
2023/11/14 10:18:50;;;;;;;;;;;13.40;73.50;;;8.93;100.00;95405.69;4991860;28;19971;-57
2023/11/14 10:21:34;;;;;;;;;;;13.40;73.50;;;8.86;100.00;95407.78;4988690;28;20331;-59
2023/11/14 10:24:00;;;;;;;;;;;13.40;73.50;;;8.86;100.00;95405.13;4990288;28;19956;-57
2023/11/14 10:26:27;;;;;;;;;;;13.40;74.30;;;8.85;100.00;95395.56;4990389;28;20322;-58
2023/11/14 10:29:02;;;;;;;;;;;13.40;73.50;;;8.86;100.00;95397.97;4991056;28;19916;-58
2023/11/14 10:31:37;;;;;;;;;;;13.40;73.60;;;8.84;100.00;95391.31;4993474;28;19909;-59
2023/11/14 10:34:06;;;;;;;;;;;13.40;73.60;;;8.81;100.00;95387.34;4983313;28;19918;-60
2023/11/14 10:36:54;;;;;;;;;;;13.40;73.60;;;8.85;100.00;95398.25;4985201;28;19916;-58
2023/11/14 10:39:20;;;;;;;;;;;13.40;73.60;;;8.90;100.00;95395.59;4991257;28;19914;-55
2023/11/14 10:41:48;;;;;;;;;;;13.40;73.70;;;8.95;100.00;95385.78;4996279;28;19909;-59
2023/11/14 10:44:15;;;;;;;;;;;13.40;73.70;;;9.01;100.00;95403.34;4987848;28;20357;-57
2023/11/14 10:46:55;;;;;;;;;;;13.40;73.70;;;8.99;100.00;95404.66;4988521;28;19909;-58
2023/11/14 10:49:23;;;;;;;;;;;13.40;73.80;;;9.06;100.00;95404.44;4992337;28;20000;-56
2023/11/14 10:51:52;;;;;;;;;;;13.40;73.70;;;9.12;100.00;95385.63;4973965;28;20292;-56
2023/11/14 10:54:18;;;;;;;;;;;13.40;73.70;;;9.16;100.00;95380.56;4990966;28;19918;-58
2023/11/14 10:56:46;;;;;;;;;;;13.40;73.70;;;9.16;100.00;95372.59;4990610;28;20368;-55
2023/11/14 10:59:14;;;;;;;;;;;13.40;73.60;;;9.15;100.00;95360.34;4990367;28;19921;-56
2023/11/14 11:01:46;;;;;;;;;;;13.40;73.60;;;9.14;100.00;95354.25;4984787;28;20431;-55
2023/11/14 11:04:18;;;;;;;;;;;13.40;73.50;;;9.13;100.00;95360.63;4987175;28;19945;-57
2023/11/14 11:06:48;;;;;;;;;;;13.40;73.40;;;9.12;100.00;95351.06;4991049;28;19909;-58
2023/11/14 11:09:17;;;;;;;;;;;13.30;73.30;;;9.13;100.00;95357.97;4991967;28;19910;-55
2023/11/14 11:11:57;;;;;;;;;;;13.30;73.30;;;9.12;100.00;95355.56;4989640;28;20000;-57
2023/11/14 11:14:24;;;;;;;;;;;13.30;73.30;;;9.13;100.00;95357.97;4991950;28;20012;-57